createdAt,value
2018-06-09T00:00:09.693Z,6.67
2018-06-09T00:02:38.539Z,6.37
2018-06-09T00:05:07.364Z,7.17
2018-06-09T00:07:36.181Z,6.45
2018-06-09T00:10:05.084Z,6.00
2018-06-09T00:12:34.001Z,6.83
2018-06-09T00:15:02.796Z,7.17
2018-06-09T00:17:31.634Z,6.20
2018-06-09T00:20:00.518Z,6.57
2018-06-09T00:22:29.372Z,6.67
2018-06-09T00:24:58.197Z,6.13
2018-06-09T00:27:27.103Z,6.70
2018-06-09T00:29:55.989Z,6.30
2018-06-09T00:32:24.810Z,7.00
2018-06-09T00:34:53.713Z,6.87
2018-06-09T00:37:22.606Z,6.67
2018-06-09T00:39:51.521Z,7.27
2018-06-09T00:42:20.370Z,7.00
2018-06-09T00:44:49.223Z,7.30
2018-06-09T00:47:18.114Z,8.03
2018-06-09T00:49:46.974Z,7.43
2018-06-09T00:52:15.795Z,6.50
2018-06-09T00:54:44.645Z,7.50
2018-06-09T00:57:13.418Z,6.73
2018-06-09T00:59:42.234Z,7.33
2018-06-09T01:02:11.126Z,7.30
2018-06-09T01:04:39.965Z,6.33
2018-06-09T01:07:08.962Z,7.13
2018-06-09T01:09:37.810Z,7.47
2018-06-09T01:12:06.729Z,6.97
2018-06-09T01:14:35.562Z,7.60
2018-06-09T01:17:04.428Z,7.97
2018-06-09T01:19:33.372Z,6.78
2018-06-09T01:22:02.272Z,8.23
2018-06-09T01:24:31.154Z,8.10
2018-06-09T01:26:59.989Z,8.47
2018-06-09T01:29:28.835Z,8.00
2018-06-09T01:31:57.682Z,8.08
2018-06-09T01:34:26.543Z,8.83
2018-06-09T01:36:55.417Z,8.15
2018-06-09T01:39:24.301Z,9.48
2018-06-09T01:41:53.144Z,7.85
2018-06-09T01:44:22.029Z,8.20
2018-06-09T01:46:50.843Z,8.08
2018-06-09T01:49:19.663Z,7.70
2018-06-09T01:51:48.545Z,8.20
2018-06-09T01:54:17.388Z,7.83
2018-06-09T01:56:46.289Z,8.18
2018-06-09T01:59:15.184Z,8.63
2018-06-09T02:01:44.075Z,7.63
2018-06-09T02:04:13.036Z,8.10
2018-06-09T02:06:41.882Z,7.50
2018-06-09T02:09:10.740Z,7.53
2018-06-09T02:11:39.637Z,8.20
2018-06-09T02:14:08.529Z,7.90
2018-06-09T02:16:37.401Z,8.50
2018-06-09T02:19:06.306Z,8.35
2018-06-09T02:21:35.215Z,8.00
2018-06-09T02:24:04.083Z,8.67
2018-06-09T02:26:32.978Z,8.10
2018-06-09T02:29:01.879Z,7.73
2018-06-09T02:31:30.703Z,8.60
2018-06-09T02:33:59.601Z,8.00
2018-06-09T02:36:28.478Z,8.10
2018-06-09T02:38:57.356Z,7.87
2018-06-09T02:41:26.309Z,7.80
2018-06-09T02:43:55.216Z,7.00
2018-06-09T02:46:24.117Z,6.70
2018-06-09T02:48:53.048Z,7.70
2018-06-09T02:51:21.915Z,9.07
2018-06-09T02:53:50.886Z,7.40
2018-06-09T02:56:19.769Z,7.33
2018-06-09T02:58:48.714Z,7.00
2018-06-09T03:01:17.572Z,6.43
2018-06-09T03:03:46.478Z,6.80
2018-06-09T03:06:15.384Z,5.87
2018-06-09T03:08:44.317Z,6.50
2018-06-09T03:11:13.229Z,5.90
2018-06-09T03:13:42.103Z,5.90
2018-06-09T03:16:10.959Z,6.28
2018-06-09T03:18:39.884Z,5.07
2018-06-09T03:21:08.766Z,5.67
2018-06-09T03:23:37.700Z,5.50
2018-06-09T03:26:06.589Z,5.17
2018-06-09T03:28:35.453Z,5.78
2018-06-09T03:31:04.349Z,6.40
2018-06-09T03:33:33.196Z,6.77
2018-06-09T03:36:02.079Z,6.70
2018-06-09T03:38:30.972Z,6.37
2018-06-09T03:40:59.894Z,6.20
2018-06-09T03:43:28.883Z,5.60
2018-06-09T03:45:57.672Z,5.90
2018-06-09T03:48:26.537Z,5.60
2018-06-09T03:50:55.402Z,5.43
2018-06-09T03:53:24.241Z,6.40
2018-06-09T03:55:53.130Z,6.53
2018-06-09T03:58:26.352Z,5.95
2018-06-09T04:00:55.515Z,6.00
2018-06-09T04:03:24.358Z,5.70
2018-06-09T04:05:53.197Z,5.73
2018-06-09T04:08:22.056Z,5.37
2018-06-09T04:10:50.871Z,5.60
2018-06-09T04:13:19.767Z,5.37
2018-06-09T04:15:48.613Z,5.00
2018-06-09T04:18:17.476Z,4.74
2018-06-09T04:20:46.288Z,5.30
2018-06-09T04:23:15.124Z,5.20
2018-06-09T04:25:44.044Z,5.63
2018-06-09T04:30:18.845Z,5.40
2018-06-09T04:32:47.682Z,4.63
2018-06-09T04:35:16.504Z,4.60
2018-06-09T04:37:45.316Z,4.50
2018-06-09T04:40:14.170Z,4.63
2018-06-09T04:42:43.005Z,5.27
2018-06-09T04:45:11.878Z,4.90
2018-06-09T04:47:48.777Z,4.85
2018-06-09T04:50:17.728Z,4.47
2018-06-09T04:52:54.222Z,4.80
2018-06-09T04:55:23.090Z,4.72
2018-06-09T04:57:51.924Z,5.25
2018-06-09T05:00:20.782Z,3.77
2018-06-09T05:02:49.626Z,3.72
2018-06-09T05:05:18.509Z,4.20
2018-06-09T05:07:47.460Z,4.20
2018-06-09T05:10:16.464Z,3.90
2018-06-09T05:12:45.374Z,3.65
2018-06-09T05:15:14.256Z,4.70
2018-06-09T05:17:43.305Z,4.10
2018-06-09T05:20:12.145Z,3.90
2018-06-09T05:22:41.071Z,4.13
2018-06-09T05:25:09.969Z,3.53
2018-06-09T05:27:38.810Z,3.03
2018-06-09T05:30:07.753Z,3.83
2018-06-09T05:32:36.659Z,4.20
2018-06-09T05:35:05.667Z,4.03
2018-06-09T05:37:34.540Z,3.70
2018-06-09T05:40:03.470Z,4.00
2018-06-09T05:42:32.356Z,3.40
2018-06-09T05:45:01.236Z,3.50
2018-06-09T05:47:30.148Z,3.50
2018-06-09T05:50:02.866Z,3.63
2018-06-09T05:52:43.256Z,2.80
2018-06-09T05:55:24.608Z,3.10
2018-06-09T05:57:53.802Z,2.97
2018-06-09T06:00:22.709Z,3.43
2018-06-09T06:02:51.605Z,2.70
2018-06-09T06:05:20.447Z,2.47
2018-06-09T06:07:49.361Z,2.80
2018-06-09T06:10:18.205Z,2.80
2018-06-09T06:12:50.935Z,2.30
2018-06-09T06:15:19.785Z,2.57
2018-06-09T06:17:48.675Z,2.67
2018-06-09T06:20:17.584Z,2.50
2018-06-09T06:22:46.424Z,2.60
2018-06-09T06:25:15.357Z,2.00
2018-06-09T06:27:44.253Z,2.37
2018-06-09T06:30:13.166Z,2.57
2018-06-09T06:32:42.005Z,2.20
2018-06-09T06:35:10.909Z,2.22
2018-06-09T06:37:39.755Z,2.80
2018-06-09T06:40:08.638Z,2.07
2018-06-09T06:42:37.531Z,2.57
2018-06-09T06:45:07.441Z,3.53
2018-06-09T06:47:36.496Z,2.37
2018-06-09T06:50:05.397Z,2.57
2018-06-09T06:52:34.376Z,2.30
2018-06-09T06:55:05.835Z,2.17
2018-06-09T06:57:34.755Z,2.40
2018-06-09T07:00:03.872Z,2.60
2018-06-09T07:02:32.787Z,2.60
2018-06-09T07:05:01.686Z,2.55
2018-06-09T07:07:30.619Z,2.45
2018-06-09T07:09:59.503Z,2.20
2018-06-09T07:12:28.453Z,2.60
2018-06-09T07:14:57.344Z,2.50
2018-06-09T07:17:26.392Z,2.70
2018-06-09T07:19:55.277Z,2.50
2018-06-09T07:22:24.144Z,2.00
2018-06-09T07:24:53.059Z,2.50
2018-06-09T07:27:22.055Z,2.23
2018-06-09T07:29:51.742Z,2.30
2018-06-09T07:32:21.061Z,2.43
2018-06-09T07:34:49.929Z,2.60
2018-06-09T07:37:21.225Z,2.10
2018-06-09T07:39:50.189Z,2.27
2018-06-09T07:42:19.176Z,2.37
2018-06-09T07:44:48.168Z,2.03
2018-06-09T07:47:17.173Z,1.90
2018-06-09T07:49:46.403Z,2.40
2018-06-09T07:52:15.292Z,2.10
2018-06-09T07:54:44.225Z,2.17
2018-06-09T07:57:13.116Z,2.00
2018-06-09T07:59:42.130Z,2.00
2018-06-09T08:02:11.034Z,2.23
2018-06-09T08:04:39.949Z,2.00
2018-06-09T08:07:08.922Z,1.80
2018-06-09T08:09:39.446Z,2.00
2018-06-09T08:12:08.394Z,2.10
2018-06-09T08:14:37.236Z,2.20
2018-06-09T08:17:06.083Z,2.17
2018-06-09T08:19:35.027Z,2.10
2018-06-09T08:22:03.873Z,2.13
2018-06-09T08:24:32.716Z,2.33
2018-06-09T08:27:01.644Z,1.57
2018-06-09T08:29:30.642Z,1.87
2018-06-09T08:31:59.515Z,2.23
2018-06-09T08:34:28.455Z,2.30
2018-06-09T08:36:57.378Z,1.90
2018-06-09T08:39:26.320Z,2.30
2018-06-09T08:41:55.319Z,2.02
2018-06-09T08:44:24.246Z,2.50
2018-06-09T08:46:53.130Z,1.97
2018-06-09T08:49:22.148Z,2.50
2018-06-09T08:51:51.122Z,1.90
2018-06-09T08:54:20.060Z,2.00
2018-06-09T08:56:49.015Z,2.40
2018-06-09T08:59:17.889Z,2.20
2018-06-09T09:01:57.950Z,2.37
2018-06-09T09:04:37.742Z,2.17
2018-06-09T09:07:14.237Z,2.43
2018-06-09T09:09:43.150Z,1.90
2018-06-09T09:12:12.090Z,1.80
2018-06-09T09:14:41.049Z,1.50
2018-06-09T09:17:09.949Z,2.13
2018-06-09T09:19:38.844Z,2.17
2018-06-09T09:22:07.770Z,1.90
2018-06-09T09:24:36.692Z,1.90
2018-06-09T09:27:05.610Z,2.63
2018-06-09T09:29:34.492Z,1.90
2018-06-09T09:32:03.404Z,2.30
2018-06-09T09:34:32.381Z,2.50
2018-06-09T09:37:01.232Z,2.33
2018-06-09T09:39:30.147Z,1.70
2018-06-09T09:42:00.471Z,2.27
2018-06-09T09:44:29.335Z,2.03
2018-06-09T09:46:58.281Z,2.10
2018-06-09T09:49:27.212Z,2.07
2018-06-09T09:51:56.160Z,2.10
2018-06-09T09:54:25.027Z,2.00
2018-06-09T09:57:01.252Z,2.50
2018-06-09T09:59:30.182Z,2.00
2018-06-09T10:02:10.571Z,2.37
2018-06-09T10:04:56.178Z,2.00
2018-06-09T10:07:27.572Z,2.30
2018-06-09T10:10:10.869Z,1.67
2018-06-09T10:12:39.874Z,2.37
2018-06-09T10:15:08.806Z,2.80
2018-06-09T10:17:37.589Z,2.37
2018-06-09T10:20:06.495Z,2.00
2018-06-09T10:22:35.369Z,2.50
2018-06-09T10:25:04.389Z,2.33
2018-06-09T10:27:33.236Z,2.23
2018-06-09T10:30:02.128Z,2.27
2018-06-09T10:32:31.115Z,1.80
2018-06-09T10:34:59.994Z,2.08
2018-06-09T10:37:28.866Z,2.00
2018-06-09T10:39:57.750Z,2.90
2018-06-09T10:42:26.695Z,2.10
2018-06-09T10:44:55.686Z,2.10
2018-06-09T10:47:24.583Z,2.12
2018-06-09T10:49:53.478Z,2.77
2018-06-09T10:52:22.354Z,2.47
2018-06-09T10:54:51.213Z,2.10
2018-06-09T10:57:20.089Z,2.10
2018-06-09T10:59:49.355Z,2.10
2018-06-09T11:02:18.249Z,2.33
2018-06-09T11:04:47.091Z,2.00
2018-06-09T11:07:16.001Z,2.10
2018-06-09T11:09:45.653Z,2.37
2018-06-09T11:12:14.632Z,2.30
2018-06-09T11:14:43.599Z,2.37
2018-06-09T11:17:12.466Z,2.47
2018-06-09T11:20:01.405Z,2.00
2018-06-09T11:23:02.676Z,2.50
2018-06-09T11:25:36.713Z,2.50
2018-06-09T11:28:05.595Z,2.67
2018-06-09T11:30:44.863Z,2.20
2018-06-09T11:33:13.763Z,2.40
2018-06-09T11:36:12.069Z,2.43
2018-06-09T11:38:41.012Z,2.17
2018-06-09T11:41:09.900Z,2.20
2018-06-09T11:43:38.764Z,2.13
2018-06-09T11:46:07.621Z,2.30
2018-06-09T11:48:36.530Z,2.10
2018-06-09T11:51:05.385Z,1.87
2018-06-09T11:53:34.254Z,2.70
2018-06-09T11:56:03.208Z,2.20
2018-06-09T11:58:32.047Z,2.37
2018-06-09T12:01:00.979Z,2.57
2018-06-09T12:03:29.999Z,2.20
2018-06-09T12:05:58.900Z,2.20
2018-06-09T12:08:27.829Z,2.90
2018-06-09T12:11:01.321Z,2.50
2018-06-09T12:13:39.916Z,2.30
2018-06-09T12:16:08.972Z,2.30
2018-06-09T12:18:37.847Z,2.93
2018-06-09T12:21:06.725Z,2.40
2018-06-09T12:23:35.664Z,2.97
2018-06-09T12:26:05.545Z,2.20
2018-06-09T12:28:35.381Z,2.80
2018-06-09T12:31:05.169Z,2.80
2018-06-09T12:33:34.084Z,2.93
2018-06-09T12:36:02.969Z,2.60
2018-06-09T12:38:31.827Z,3.22
2018-06-09T12:41:00.735Z,2.37
2018-06-09T12:43:33.614Z,3.30
2018-06-09T12:46:04.907Z,2.70
2018-06-09T12:48:33.914Z,2.33
2018-06-09T12:51:02.779Z,2.42
2018-06-09T12:53:31.621Z,2.40
2018-06-09T12:56:00.832Z,2.87
2018-06-09T12:58:29.778Z,2.80
2018-06-09T13:00:59.817Z,2.60
2018-06-09T13:03:29.378Z,2.50
2018-06-09T13:05:58.291Z,2.80
2018-06-09T13:08:28.451Z,2.57
2018-06-09T13:11:07.965Z,2.80
2018-06-09T13:13:37.158Z,3.00
2018-06-09T13:16:06.060Z,2.80
2018-06-09T13:18:34.925Z,2.93
2018-06-09T13:21:03.872Z,3.00
2018-06-09T13:23:32.739Z,2.87
2018-06-09T13:26:01.599Z,2.90
2018-06-09T13:28:31.557Z,2.93
2018-06-09T13:31:00.936Z,3.50
2018-06-09T13:33:33.109Z,2.80
2018-06-09T13:36:02.120Z,2.60
2018-06-09T13:38:31.442Z,2.90
2018-06-09T13:41:00.473Z,2.97
2018-06-09T13:43:29.490Z,2.97
2018-06-09T13:45:58.323Z,3.17
2018-06-09T13:48:27.666Z,2.62
2018-06-09T13:50:56.525Z,2.80
2018-06-09T13:53:25.381Z,2.63
2018-06-09T13:55:54.246Z,2.23
2018-06-09T13:58:23.082Z,3.17
2018-06-09T14:00:51.942Z,2.27
2018-06-09T14:03:20.780Z,2.40
2018-06-09T14:05:50.182Z,2.50
2018-06-09T14:08:19.506Z,2.47
2018-06-09T14:10:51.502Z,2.53
2018-06-09T14:13:21.379Z,2.80
2018-06-09T14:15:51.219Z,2.70
2018-06-09T14:18:20.213Z,3.05
2018-06-09T14:20:49.287Z,3.40
2018-06-09T14:23:18.271Z,3.20
2018-06-09T14:25:47.145Z,3.33
2018-06-09T14:28:16.227Z,3.00
2018-06-09T14:30:45.093Z,2.97
2018-06-09T14:33:13.980Z,2.60
2018-06-09T14:35:43.179Z,2.55
2018-06-09T14:38:12.546Z,2.80
2018-06-09T14:40:41.507Z,2.87
2018-06-09T14:43:10.359Z,2.80
2018-06-09T14:45:39.605Z,3.23
2018-06-09T14:48:08.428Z,2.87
2018-06-09T14:50:38.377Z,3.10
2018-06-09T14:53:08.258Z,3.17
2018-06-09T14:55:38.151Z,2.90
2018-06-09T14:58:08.214Z,2.52
2018-06-09T15:00:48.151Z,2.70
2018-06-09T15:03:17.412Z,2.90
2018-06-09T15:05:46.314Z,2.80
2018-06-09T15:08:15.232Z,2.98
2018-06-09T15:10:44.153Z,3.07
2018-06-09T15:13:13.053Z,3.07
2018-06-09T15:15:41.886Z,2.80
2018-06-09T15:33:41.716Z,3.10
2018-06-09T15:36:10.821Z,3.30
2018-06-09T15:38:39.863Z,2.83
2018-06-09T15:41:09.582Z,3.20
2018-06-09T15:43:39.067Z,3.07
2018-06-09T15:46:08.222Z,3.23
2018-06-09T15:49:19.064Z,2.93
2018-06-09T15:51:48.735Z,2.87
2018-06-09T15:54:18.537Z,2.90
2018-06-09T15:56:48.518Z,2.80
2018-06-09T15:59:17.494Z,3.07
2018-06-09T16:01:49.767Z,3.57
2018-06-09T16:04:19.029Z,3.17
2018-06-09T16:06:47.889Z,2.27
2018-06-09T16:09:16.894Z,2.73
2018-06-09T16:11:47.398Z,3.00
2018-06-09T16:14:17.232Z,3.00
2018-06-09T16:16:47.255Z,2.97
2018-06-09T16:19:17.332Z,2.90
2018-06-09T16:21:46.227Z,2.90
2018-06-09T16:24:15.020Z,3.60
2018-06-09T16:26:43.962Z,2.70
2018-06-09T16:29:12.835Z,2.63
2018-06-09T16:31:41.736Z,2.67
2018-06-09T16:34:10.797Z,2.93
2018-06-09T16:36:39.653Z,3.10
2018-06-09T16:39:08.644Z,3.37
2018-06-09T16:41:37.575Z,3.60
2018-06-09T16:44:06.695Z,3.93
2018-06-09T16:46:35.593Z,3.30
2018-06-09T16:49:04.579Z,3.10
2018-06-09T16:51:33.466Z,2.83
2018-06-09T16:54:02.516Z,2.73
2018-06-09T16:56:31.664Z,2.50
2018-06-09T16:59:00.724Z,2.90
2018-06-09T17:01:29.954Z,2.50
2018-06-09T17:03:59.172Z,2.60
2018-06-09T17:06:28.277Z,2.90
2018-06-09T17:08:57.357Z,6.78
2018-06-09T17:11:26.353Z,2.67
2018-06-09T17:13:55.237Z,2.60
2018-06-09T17:16:24.108Z,2.67
2018-06-09T17:18:53.367Z,3.90
2018-06-09T17:21:22.251Z,2.20
2018-06-09T17:23:51.221Z,2.60
2018-06-09T17:26:20.317Z,2.47
2018-06-09T17:28:49.900Z,2.43
2018-06-09T17:31:18.864Z,2.13
2018-06-09T17:33:48.167Z,2.50
2018-06-09T17:36:17.058Z,15.07
2018-06-09T17:38:45.902Z,6.77
2018-06-09T17:41:15.539Z,3.87
2018-06-09T17:43:44.445Z,3.00
2018-06-09T17:46:13.591Z,2.40
2018-06-09T17:48:42.548Z,2.43
2018-06-09T17:51:11.527Z,2.22
2018-06-09T17:53:40.569Z,2.40
2018-06-09T17:56:09.547Z,2.40
2018-06-09T17:58:38.393Z,3.00
2018-06-09T18:01:07.396Z,2.60
2018-06-09T18:03:36.795Z,2.63
2018-06-09T18:06:05.759Z,2.43
2018-06-09T18:08:34.631Z,2.50
2018-06-09T18:11:03.559Z,2.85
2018-06-09T18:13:32.399Z,3.10
2018-06-09T18:16:01.352Z,3.10
2018-06-09T18:18:47.791Z,2.70
2018-06-09T18:21:16.709Z,2.93
2018-06-09T18:23:45.807Z,2.50
2018-06-09T18:26:14.732Z,2.17
2018-06-09T18:28:43.587Z,2.90
2018-06-09T18:31:12.921Z,2.60
2018-06-09T18:33:41.964Z,2.20
2018-06-09T18:36:10.902Z,2.10
2018-06-09T18:38:40.272Z,2.40
2018-06-09T18:41:09.358Z,2.40
2018-06-09T18:43:38.294Z,2.90
2018-06-09T18:46:07.461Z,2.60
2018-06-09T18:48:36.364Z,2.77
2018-06-09T18:51:05.511Z,2.70
2018-06-09T18:53:34.425Z,3.37
2018-06-09T18:56:03.335Z,3.10
2018-06-09T18:58:32.626Z,2.63
2018-06-09T19:01:01.455Z,2.87
2018-06-09T19:03:30.414Z,2.73
2018-06-09T19:05:59.571Z,2.60
2018-06-09T19:08:28.477Z,3.10
2018-06-09T19:10:57.395Z,3.10
2018-06-09T19:13:26.283Z,2.60
2018-06-09T19:15:56.653Z,2.60
2018-06-09T19:18:25.537Z,2.97
2018-06-09T19:20:54.426Z,3.10
2018-06-09T19:23:23.324Z,2.53
2018-06-09T19:25:52.190Z,3.00
2018-06-09T19:28:21.394Z,2.52
2018-06-09T19:30:50.353Z,2.90
2018-06-09T19:33:19.877Z,3.20
2018-06-09T19:35:49.803Z,2.70
2018-06-09T19:38:19.156Z,3.00
2018-06-09T19:40:48.642Z,2.80
2018-06-09T19:43:18.300Z,3.50
2018-06-09T19:45:47.245Z,4.03
2018-06-09T19:48:16.225Z,2.80
2018-06-09T19:50:45.375Z,3.20
2018-06-09T19:53:14.293Z,2.70
2018-06-09T19:55:43.749Z,2.57
2018-06-09T19:58:13.494Z,2.58
2018-06-09T20:00:43.108Z,2.20
2018-06-09T20:03:12.145Z,2.80
2018-06-09T20:05:41.070Z,3.03
2018-06-09T20:08:12.557Z,2.63
2018-06-09T20:10:41.441Z,3.13
2018-06-09T20:13:10.342Z,2.00
2018-06-09T20:15:39.233Z,2.17
2018-06-09T20:30:13.782Z,2.60
2018-06-09T20:32:42.710Z,2.30
2018-06-09T20:35:11.577Z,2.23
2018-06-09T20:37:41.321Z,2.50
2018-06-09T20:40:10.246Z,2.13
2018-06-09T20:42:39.225Z,2.20
2018-06-09T20:45:08.095Z,2.53
2018-06-09T20:47:36.965Z,2.77
2018-06-09T20:50:05.849Z,2.37
2018-06-09T20:52:34.705Z,3.87
2018-06-09T20:55:03.610Z,4.50
2018-06-09T20:57:32.541Z,2.97
2018-06-09T21:00:01.425Z,2.47
2018-06-09T21:02:30.638Z,2.75
2018-06-09T21:04:59.582Z,2.25
2018-06-09T21:07:28.450Z,2.23
2018-06-09T21:09:58.316Z,2.83
2018-06-09T21:12:27.134Z,3.10
2018-06-09T21:14:55.975Z,3.10
2018-06-09T21:17:25.490Z,2.70
2018-06-09T21:19:54.397Z,2.00
2018-06-09T21:22:23.269Z,2.90
2018-06-09T21:24:53.669Z,2.77
2018-06-09T21:27:27.798Z,2.47
2018-06-09T21:29:59.440Z,2.30
2018-06-09T21:32:29.020Z,2.33
2018-06-09T21:35:12.926Z,2.27
2018-06-09T21:37:43.305Z,2.37
2018-06-09T21:40:17.404Z,2.40
2018-06-09T21:42:50.614Z,2.80
2018-06-09T21:45:28.460Z,1.97
2018-06-09T21:47:57.697Z,2.07
2018-06-09T21:50:26.620Z,2.53
2018-06-09T21:52:55.463Z,2.37
2018-06-09T21:55:24.322Z,2.30
2018-06-09T21:57:53.237Z,2.60
2018-06-09T22:00:22.204Z,2.20
2018-06-09T22:02:51.477Z,2.40
2018-06-09T22:05:20.389Z,1.97
2018-06-09T22:07:49.293Z,2.03
2018-06-09T22:10:19.126Z,2.50
2018-06-09T22:12:48.019Z,2.70
2018-06-09T22:15:16.879Z,2.10
2018-06-09T22:17:46.787Z,2.20
2018-06-09T22:20:15.988Z,2.22
2018-06-09T22:22:45.571Z,2.20
2018-06-09T22:25:19.435Z,2.60
2018-06-09T22:27:49.678Z,2.57
2018-06-09T22:30:19.731Z,2.00
2018-06-09T22:32:48.623Z,2.57
2018-06-09T22:35:17.680Z,2.50
2018-06-09T22:37:50.046Z,2.37
2018-06-09T22:40:18.978Z,2.77
2018-06-09T22:42:47.896Z,2.60
2018-06-09T22:45:17.633Z,2.30
2018-06-09T22:47:46.475Z,2.50
2018-06-09T22:50:17.099Z,2.30
2018-06-09T22:52:45.962Z,2.50
2018-06-09T22:55:14.832Z,2.20
2018-06-09T22:57:44.983Z,2.72
2018-06-09T23:00:21.042Z,2.43
2018-06-09T23:02:50.115Z,2.60
2018-06-09T23:05:18.996Z,2.90
2018-06-09T23:07:47.965Z,3.20
2018-06-09T23:10:16.947Z,2.70
2018-06-09T23:12:46.236Z,2.30
2018-06-09T23:15:15.110Z,2.40
2018-06-09T23:17:43.965Z,2.60
2018-06-09T23:20:12.839Z,2.60
2018-06-09T23:22:41.726Z,2.67
2018-06-09T23:25:10.608Z,2.50
2018-06-09T23:27:39.441Z,2.53
2018-06-09T23:30:08.359Z,3.47
2018-06-09T23:32:37.325Z,3.00
2018-06-09T23:35:06.274Z,2.70
2018-06-09T23:37:35.182Z,3.75
2018-06-09T23:40:04.065Z,3.00
2018-06-09T23:42:33.414Z,4.08
2018-06-09T23:45:02.274Z,2.87
2018-06-09T23:47:31.210Z,3.33
2018-06-09T23:50:00.122Z,3.90
2018-06-09T23:52:29.021Z,3.30
2018-06-09T23:54:57.906Z,3.80
2018-06-09T23:57:26.821Z,3.83
2018-06-09T23:59:55.724Z,3.70
